sensor_id;sensor_type;location;lat;lon;timestamp;P1;durP1;ratioP1;P2;durP2;ratioP2
78563;SDS011;67856;47.754;19.088;2024-01-15T00:00:47;7.75;;;4.57;;
78563;SDS011;67856;47.754;19.088;2024-01-15T00:03:50;7.22;;;4.45;;
78563;SDS011;67856;47.754;19.088;2024-01-15T00:06:52;7.57;;;4.50;;
78563;SDS011;67856;47.754;19.088;2024-01-15T00:09:55;8.37;;;5.00;;
78563;SDS011;67856;47.754;19.088;2024-01-15T00:12:58;7.22;;;4.40;;
78563;SDS011;67856;47.754;19.088;2024-01-15T00:16:00;6.88;;;4.32;;
78563;SDS011;67856;47.754;19.088;2024-01-15T00:19:02;7.68;;;4.43;;
78563;SDS011;67856;47.754;19.088;2024-01-15T00:22:05;6.18;;;3.80;;
78563;SDS011;67856;47.754;19.088;2024-01-15T00:25:07;5.87;;;3.80;;
78563;SDS011;67856;47.754;19.088;2024-01-15T00:28:10;7.28;;;4.65;;
78563;SDS011;67856;47.754;19.088;2024-01-15T00:31:13;6.60;;;3.60;;
78563;SDS011;67856;47.754;19.088;2024-01-15T00:34:18;6.05;;;3.72;;
78563;SDS011;67856;47.754;19.088;2024-01-15T00:37:21;7.15;;;4.22;;
78563;SDS011;67856;47.754;19.088;2024-01-15T00:40:23;6.40;;;3.73;;
78563;SDS011;67856;47.754;19.088;2024-01-15T00:43:27;5.47;;;3.50;;
78563;SDS011;67856;47.754;19.088;2024-01-15T00:46:30;5.53;;;3.55;;
78563;SDS011;67856;47.754;19.088;2024-01-15T00:49:32;5.38;;;3.30;;
78563;SDS011;67856;47.754;19.088;2024-01-15T00:52:35;5.68;;;3.42;;
78563;SDS011;67856;47.754;19.088;2024-01-15T00:55:37;6.07;;;3.80;;
78563;SDS011;67856;47.754;19.088;2024-01-15T00:58:40;6.80;;;3.70;;
78563;SDS011;67856;47.754;19.088;2024-01-15T01:01:42;7.43;;;4.15;;
78563;SDS011;67856;47.754;19.088;2024-01-15T01:04:45;7.03;;;4.10;;
78563;SDS011;67856;47.754;19.088;2024-01-15T01:07:47;6.55;;;3.95;;
78563;SDS011;67856;47.754;19.088;2024-01-15T01:10:50;6.83;;;3.80;;
78563;SDS011;67856;47.754;19.088;2024-01-15T01:13:52;6.25;;;3.95;;
78563;SDS011;67856;47.754;19.088;2024-01-15T01:16:55;6.88;;;3.90;;
78563;SDS011;67856;47.754;19.088;2024-01-15T01:19:57;6.93;;;4.38;;
78563;SDS011;67856;47.754;19.088;2024-01-15T01:23:00;5.75;;;3.65;;
78563;SDS011;67856;47.754;19.088;2024-01-15T01:26:03;6.33;;;3.90;;
78563;SDS011;67856;47.754;19.088;2024-01-15T01:29:05;7.57;;;4.25;;
78563;SDS011;67856;47.754;19.088;2024-01-15T01:32:07;7.22;;;4.07;;
78563;SDS011;67856;47.754;19.088;2024-01-15T01:35:10;6.93;;;3.72;;
78563;SDS011;67856;47.754;19.088;2024-01-15T01:38:12;6.90;;;4.40;;
78563;SDS011;67856;47.754;19.088;2024-01-15T01:41:15;6.17;;;3.97;;
78563;SDS011;67856;47.754;19.088;2024-01-15T01:44:17;6.68;;;4.18;;
78563;SDS011;67856;47.754;19.088;2024-01-15T01:47:20;6.00;;;3.70;;
78563;SDS011;67856;47.754;19.088;2024-01-15T01:50:22;7.22;;;4.43;;
78563;SDS011;67856;47.754;19.088;2024-01-15T01:53:25;8.00;;;4.72;;
78563;SDS011;67856;47.754;19.088;2024-01-15T01:56:28;6.63;;;4.13;;
78563;SDS011;67856;47.754;19.088;2024-01-15T01:59:31;6.45;;;3.70;;
78563;SDS011;67856;47.754;19.088;2024-01-15T02:02:34;5.88;;;3.70;;
78563;SDS011;67856;47.754;19.088;2024-01-15T02:05:36;6.55;;;3.92;;
78563;SDS011;67856;47.754;19.088;2024-01-15T02:08:39;5.82;;;3.70;;
78563;SDS011;67856;47.754;19.088;2024-01-15T02:11:42;6.03;;;3.70;;
78563;SDS011;67856;47.754;19.088;2024-01-15T02:14:44;5.68;;;3.70;;
78563;SDS011;67856;47.754;19.088;2024-01-15T02:18:00;6.28;;;3.75;;
78563;SDS011;67856;47.754;19.088;2024-01-15T02:21:03;5.40;;;3.58;;
78563;SDS011;67856;47.754;19.088;2024-01-15T02:24:06;7.07;;;3.78;;
78563;SDS011;67856;47.754;19.088;2024-01-15T02:27:08;8.30;;;4.13;;
78563;SDS011;67856;47.754;19.088;2024-01-15T02:30:11;6.13;;;3.53;;
78563;SDS011;67856;47.754;19.088;2024-01-15T02:33:14;6.75;;;3.70;;
78563;SDS011;67856;47.754;19.088;2024-01-15T02:36:17;7.78;;;4.20;;
78563;SDS011;67856;47.754;19.088;2024-01-15T02:39:20;8.07;;;4.47;;
78563;SDS011;67856;47.754;19.088;2024-01-15T02:42:22;6.87;;;3.90;;
78563;SDS011;67856;47.754;19.088;2024-01-15T02:45:25;7.20;;;4.55;;
78563;SDS011;67856;47.754;19.088;2024-01-15T02:48:27;7.65;;;4.30;;
78563;SDS011;67856;47.754;19.088;2024-01-15T02:51:30;8.85;;;5.18;;
78563;SDS011;67856;47.754;19.088;2024-01-15T02:54:32;7.13;;;4.63;;
78563;SDS011;67856;47.754;19.088;2024-01-15T02:57:35;6.77;;;3.93;;
78563;SDS011;67856;47.754;19.088;2024-01-15T03:00:37;8.00;;;4.30;;
78563;SDS011;67856;47.754;19.088;2024-01-15T03:03:40;7.25;;;4.07;;
78563;SDS011;67856;47.754;19.088;2024-01-15T03:06:43;5.88;;;3.55;;
78563;SDS011;67856;47.754;19.088;2024-01-15T03:09:45;5.55;;;3.55;;
78563;SDS011;67856;47.754;19.088;2024-01-15T03:12:48;6.00;;;3.57;;
78563;SDS011;67856;47.754;19.088;2024-01-15T03:15:50;6.47;;;3.78;;
78563;SDS011;67856;47.754;19.088;2024-01-15T03:18:53;5.93;;;3.67;;
78563;SDS011;67856;47.754;19.088;2024-01-15T03:21:56;6.15;;;3.55;;
78563;SDS011;67856;47.754;19.088;2024-01-15T03:24:58;5.07;;;3.45;;
78563;SDS011;67856;47.754;19.088;2024-01-15T03:28:01;5.70;;;3.70;;
78563;SDS011;67856;47.754;19.088;2024-01-15T03:31:03;6.28;;;3.85;;
78563;SDS011;67856;47.754;19.088;2024-01-15T03:34:06;6.38;;;3.78;;
78563;SDS011;67856;47.754;19.088;2024-01-15T03:37:08;5.82;;;3.55;;
78563;SDS011;67856;47.754;19.088;2024-01-15T03:40:11;6.63;;;3.90;;
78563;SDS011;67856;47.754;19.088;2024-01-15T03:43:14;5.83;;;3.53;;
78563;SDS011;67856;47.754;19.088;2024-01-15T03:46:17;5.50;;;3.30;;
78563;SDS011;67856;47.754;19.088;2024-01-15T03:49:19;5.88;;;3.40;;
78563;SDS011;67856;47.754;19.088;2024-01-15T03:52:22;6.28;;;3.63;;
78563;SDS011;67856;47.754;19.088;2024-01-15T03:55:24;6.15;;;3.92;;
78563;SDS011;67856;47.754;19.088;2024-01-15T03:58:27;5.73;;;3.50;;
78563;SDS011;67856;47.754;19.088;2024-01-15T04:01:29;6.25;;;3.70;;
78563;SDS011;67856;47.754;19.088;2024-01-15T04:04:32;5.35;;;3.70;;
78563;SDS011;67856;47.754;19.088;2024-01-15T04:07:34;5.63;;;3.53;;
78563;SDS011;67856;47.754;19.088;2024-01-15T04:10:37;6.15;;;3.97;;
78563;SDS011;67856;47.754;19.088;2024-01-15T04:13:39;6.70;;;3.63;;
78563;SDS011;67856;47.754;19.088;2024-01-15T04:16:43;5.75;;;3.45;;
78563;SDS011;67856;47.754;19.088;2024-01-15T04:19:46;5.82;;;3.50;;
78563;SDS011;67856;47.754;19.088;2024-01-15T04:22:50;6.13;;;3.90;;
78563;SDS011;67856;47.754;19.088;2024-01-15T04:25:52;6.72;;;4.38;;
78563;SDS011;67856;47.754;19.088;2024-01-15T04:28:55;7.43;;;4.30;;
78563;SDS011;67856;47.754;19.088;2024-01-15T04:31:57;6.88;;;4.15;;
78563;SDS011;67856;47.754;19.088;2024-01-15T04:35:00;5.95;;;3.83;;
78563;SDS011;67856;47.754;19.088;2024-01-15T04:38:02;6.60;;;4.07;;
78563;SDS011;67856;47.754;19.088;2024-01-15T04:41:05;5.45;;;3.60;;
78563;SDS011;67856;47.754;19.088;2024-01-15T04:44:07;5.97;;;3.73;;
78563;SDS011;67856;47.754;19.088;2024-01-15T04:47:10;5.80;;;3.60;;
78563;SDS011;67856;47.754;19.088;2024-01-15T04:50:12;5.35;;;3.50;;
78563;SDS011;67856;47.754;19.088;2024-01-15T04:53:14;6.47;;;4.03;;
78563;SDS011;67856;47.754;19.088;2024-01-15T04:56:17;6.20;;;3.83;;
78563;SDS011;67856;47.754;19.088;2024-01-15T04:59:20;5.97;;;3.70;;
78563;SDS011;67856;47.754;19.088;2024-01-15T05:02:22;5.68;;;3.50;;
78563;SDS011;67856;47.754;19.088;2024-01-15T05:05:25;6.43;;;4.00;;
78563;SDS011;67856;47.754;19.088;2024-01-15T05:08:28;6.05;;;3.80;;
78563;SDS011;67856;47.754;19.088;2024-01-15T05:11:30;5.18;;;3.65;;
78563;SDS011;67856;47.754;19.088;2024-01-15T05:14:32;6.37;;;3.60;;
78563;SDS011;67856;47.754;19.088;2024-01-15T05:17:35;7.00;;;4.30;;
78563;SDS011;67856;47.754;19.088;2024-01-15T05:20:37;9.40;;;4.95;;
78563;SDS011;67856;47.754;19.088;2024-01-15T05:23:40;11.55;;;5.63;;
78563;SDS011;67856;47.754;19.088;2024-01-15T05:26:42;14.88;;;6.32;;
78563;SDS011;67856;47.754;19.088;2024-01-15T05:29:45;17.93;;;6.40;;
78563;SDS011;67856;47.754;19.088;2024-01-15T05:32:47;15.43;;;7.03;;
78563;SDS011;67856;47.754;19.088;2024-01-15T05:35:50;12.02;;;7.00;;
78563;SDS011;67856;47.754;19.088;2024-01-15T05:38:52;12.57;;;7.25;;
78563;SDS011;67856;47.754;19.088;2024-01-15T05:41:55;17.60;;;8.00;;
78563;SDS011;67856;47.754;19.088;2024-01-15T05:44:57;16.27;;;8.10;;
78563;SDS011;67856;47.754;19.088;2024-01-15T05:48:01;12.82;;;7.63;;
78563;SDS011;67856;47.754;19.088;2024-01-15T05:51:04;13.63;;;8.10;;
78563;SDS011;67856;47.754;19.088;2024-01-15T05:54:06;14.75;;;8.25;;
78563;SDS011;67856;47.754;19.088;2024-01-15T05:57:09;16.08;;;8.65;;
78563;SDS011;67856;47.754;19.088;2024-01-15T06:00:11;14.43;;;8.20;;
78563;SDS011;67856;47.754;19.088;2024-01-15T06:03:14;14.55;;;8.23;;
78563;SDS011;67856;47.754;19.088;2024-01-15T06:06:17;13.07;;;8.52;;
78563;SDS011;67856;47.754;19.088;2024-01-15T06:09:20;16.25;;;8.05;;
78563;SDS011;67856;47.754;19.088;2024-01-15T06:12:22;16.45;;;8.50;;
78563;SDS011;67856;47.754;19.088;2024-01-15T06:15:25;15.23;;;8.47;;
78563;SDS011;67856;47.754;19.088;2024-01-15T06:18:27;14.30;;;8.35;;
78563;SDS011;67856;47.754;19.088;2024-01-15T06:21:30;17.75;;;9.52;;
78563;SDS011;67856;47.754;19.088;2024-01-15T06:24:32;15.60;;;9.55;;
78563;SDS011;67856;47.754;19.088;2024-01-15T06:27:35;15.73;;;8.88;;
78563;SDS011;67856;47.754;19.088;2024-01-15T06:30:38;15.03;;;8.80;;
78563;SDS011;67856;47.754;19.088;2024-01-15T06:33:41;14.32;;;8.90;;
78563;SDS011;67856;47.754;19.088;2024-01-15T06:36:44;19.20;;;10.10;;
78563;SDS011;67856;47.754;19.088;2024-01-15T06:39:47;15.10;;;8.68;;
78563;SDS011;67856;47.754;19.088;2024-01-15T06:42:49;17.85;;;9.65;;
78563;SDS011;67856;47.754;19.088;2024-01-15T06:45:52;18.37;;;9.63;;
78563;SDS011;67856;47.754;19.088;2024-01-15T06:48:55;21.58;;;10.27;;
78563;SDS011;67856;47.754;19.088;2024-01-15T06:51:57;19.80;;;10.32;;
78563;SDS011;67856;47.754;19.088;2024-01-15T06:55:00;19.45;;;10.30;;
78563;SDS011;67856;47.754;19.088;2024-01-15T06:58:03;25.45;;;10.80;;
78563;SDS011;67856;47.754;19.088;2024-01-15T07:01:06;29.83;;;11.23;;
78563;SDS011;67856;47.754;19.088;2024-01-15T07:04:10;28.75;;;9.88;;
78563;SDS011;67856;47.754;19.088;2024-01-15T07:07:13;29.42;;;10.57;;
78563;SDS011;67856;47.754;19.088;2024-01-15T07:10:15;22.60;;;10.65;;
78563;SDS011;67856;47.754;19.088;2024-01-15T07:13:18;24.65;;;10.98;;
78563;SDS011;67856;47.754;19.088;2024-01-15T07:16:20;24.23;;;10.37;;
78563;SDS011;67856;47.754;19.088;2024-01-15T07:19:38;25.58;;;10.70;;
78563;SDS011;67856;47.754;19.088;2024-01-15T07:22:41;25.80;;;10.38;;
78563;SDS011;67856;47.754;19.088;2024-01-15T07:25:43;27.33;;;9.73;;
78563;SDS011;67856;47.754;19.088;2024-01-15T07:28:46;25.50;;;9.88;;
78563;SDS011;67856;47.754;19.088;2024-01-15T07:31:52;20.90;;;9.17;;
78563;SDS011;67856;47.754;19.088;2024-01-15T07:34:55;18.35;;;9.23;;
78563;SDS011;67856;47.754;19.088;2024-01-15T07:37:58;22.30;;;9.68;;
78563;SDS011;67856;47.754;19.088;2024-01-15T07:41:00;18.65;;;9.15;;
78563;SDS011;67856;47.754;19.088;2024-01-15T07:44:03;19.35;;;9.38;;
78563;SDS011;67856;47.754;19.088;2024-01-15T07:47:06;18.70;;;8.87;;
78563;SDS011;67856;47.754;19.088;2024-01-15T07:50:10;16.65;;;8.68;;
78563;SDS011;67856;47.754;19.088;2024-01-15T07:53:13;18.15;;;8.85;;
78563;SDS011;67856;47.754;19.088;2024-01-15T07:56:19;18.73;;;9.23;;
78563;SDS011;67856;47.754;19.088;2024-01-15T07:59:21;21.30;;;9.50;;
78563;SDS011;67856;47.754;19.088;2024-01-15T08:02:24;18.80;;;9.70;;
78563;SDS011;67856;47.754;19.088;2024-01-15T08:05:26;18.67;;;9.13;;
78563;SDS011;67856;47.754;19.088;2024-01-15T08:08:30;19.98;;;8.73;;
78563;SDS011;67856;47.754;19.088;2024-01-15T08:11:32;18.75;;;8.48;;
78563;SDS011;67856;47.754;19.088;2024-01-15T08:14:35;14.73;;;8.30;;
78563;SDS011;67856;47.754;19.088;2024-01-15T08:17:38;17.47;;;8.37;;
78563;SDS011;67856;47.754;19.088;2024-01-15T08:20:40;17.30;;;8.63;;
78563;SDS011;67856;47.754;19.088;2024-01-15T08:23:43;19.58;;;8.57;;
78563;SDS011;67856;47.754;19.088;2024-01-15T08:26:46;16.42;;;7.95;;
78563;SDS011;67856;47.754;19.088;2024-01-15T08:29:48;23.88;;;8.82;;
78563;SDS011;67856;47.754;19.088;2024-01-15T08:32:51;16.00;;;8.23;;
78563;SDS011;67856;47.754;19.088;2024-01-15T08:35:53;16.92;;;8.05;;
78563;SDS011;67856;47.754;19.088;2024-01-15T08:38:56;17.30;;;7.93;;
78563;SDS011;67856;47.754;19.088;2024-01-15T08:41:59;16.63;;;7.70;;
78563;SDS011;67856;47.754;19.088;2024-01-15T08:45:02;18.40;;;7.82;;
78563;SDS011;67856;47.754;19.088;2024-01-15T08:48:04;13.13;;;7.30;;
78563;SDS011;67856;47.754;19.088;2024-01-15T08:51:07;17.48;;;7.30;;
78563;SDS011;67856;47.754;19.088;2024-01-15T08:54:11;13.55;;;7.50;;
78563;SDS011;67856;47.754;19.088;2024-01-15T08:57:14;15.73;;;7.32;;
78563;SDS011;67856;47.754;19.088;2024-01-15T09:00:17;14.55;;;7.60;;
78563;SDS011;67856;47.754;19.088;2024-01-15T09:03:22;14.27;;;6.53;;
78563;SDS011;67856;47.754;19.088;2024-01-15T09:06:25;19.05;;;7.65;;
78563;SDS011;67856;47.754;19.088;2024-01-15T09:09:27;17.48;;;7.30;;
78563;SDS011;67856;47.754;19.088;2024-01-15T09:12:30;20.90;;;7.35;;
78563;SDS011;67856;47.754;19.088;2024-01-15T09:15:36;18.45;;;7.80;;
78563;SDS011;67856;47.754;19.088;2024-01-15T09:18:39;16.77;;;7.10;;
78563;SDS011;67856;47.754;19.088;2024-01-15T09:21:42;16.98;;;6.95;;
78563;SDS011;67856;47.754;19.088;2024-01-15T09:24:45;22.50;;;6.80;;
78563;SDS011;67856;47.754;19.088;2024-01-15T09:27:48;18.98;;;7.45;;
78563;SDS011;67856;47.754;19.088;2024-01-15T09:30:50;13.68;;;6.68;;
78563;SDS011;67856;47.754;19.088;2024-01-15T09:33:53;18.13;;;6.93;;
78563;SDS011;67856;47.754;19.088;2024-01-15T09:36:58;17.73;;;6.68;;
78563;SDS011;67856;47.754;19.088;2024-01-15T09:40:03;15.73;;;6.75;;
78563;SDS011;67856;47.754;19.088;2024-01-15T09:43:10;14.02;;;6.63;;
78563;SDS011;67856;47.754;19.088;2024-01-15T09:46:13;16.95;;;6.93;;
78563;SDS011;67856;47.754;19.088;2024-01-15T09:49:19;15.57;;;6.47;;
78563;SDS011;67856;47.754;19.088;2024-01-15T09:52:21;14.27;;;6.00;;
78563;SDS011;67856;47.754;19.088;2024-01-15T09:55:24;11.00;;;6.22;;
78563;SDS011;67856;47.754;19.088;2024-01-15T09:58:27;11.73;;;5.82;;
78563;SDS011;67856;47.754;19.088;2024-01-15T10:01:32;14.13;;;6.45;;
78563;SDS011;67856;47.754;19.088;2024-01-15T10:04:35;12.70;;;6.57;;
78563;SDS011;67856;47.754;19.088;2024-01-15T10:07:40;13.05;;;6.10;;
78563;SDS011;67856;47.754;19.088;2024-01-15T10:10:43;18.45;;;6.03;;
78563;SDS011;67856;47.754;19.088;2024-01-15T10:13:48;13.60;;;5.80;;
78563;SDS011;67856;47.754;19.088;2024-01-15T10:16:58;13.20;;;6.28;;
78563;SDS011;67856;47.754;19.088;2024-01-15T10:20:01;12.70;;;5.80;;
78563;SDS011;67856;47.754;19.088;2024-01-15T10:23:06;17.98;;;6.20;;
78563;SDS011;67856;47.754;19.088;2024-01-15T10:26:09;13.73;;;6.18;;
78563;SDS011;67856;47.754;19.088;2024-01-15T10:29:16;13.38;;;5.72;;
78563;SDS011;67856;47.754;19.088;2024-01-15T10:32:19;14.38;;;5.50;;
78563;SDS011;67856;47.754;19.088;2024-01-15T10:35:22;11.50;;;5.90;;
78563;SDS011;67856;47.754;19.088;2024-01-15T10:38:25;14.07;;;5.18;;
78563;SDS011;67856;47.754;19.088;2024-01-15T10:41:30;10.73;;;5.28;;
78563;SDS011;67856;47.754;19.088;2024-01-15T10:44:34;13.48;;;5.28;;
78563;SDS011;67856;47.754;19.088;2024-01-15T10:47:37;12.68;;;5.40;;
78563;SDS011;67856;47.754;19.088;2024-01-15T10:50:44;16.77;;;5.33;;
78563;SDS011;67856;47.754;19.088;2024-01-15T10:53:48;15.05;;;5.35;;
78563;SDS011;67856;47.754;19.088;2024-01-15T10:56:51;12.23;;;5.13;;
78563;SDS011;67856;47.754;19.088;2024-01-15T10:59:55;13.18;;;4.68;;
78563;SDS011;67856;47.754;19.088;2024-01-15T11:03:03;11.10;;;4.85;;
78563;SDS011;67856;47.754;19.088;2024-01-15T11:06:16;16.90;;;4.77;;
78563;SDS011;67856;47.754;19.088;2024-01-15T11:09:24;8.25;;;4.57;;
78563;SDS011;67856;47.754;19.088;2024-01-15T11:12:27;14.43;;;4.85;;
78563;SDS011;67856;47.754;19.088;2024-01-15T11:15:30;9.95;;;4.80;;
78563;SDS011;67856;47.754;19.088;2024-01-15T11:18:40;11.75;;;4.82;;
78563;SDS011;67856;47.754;19.088;2024-01-15T11:21:43;14.10;;;4.97;;
78563;SDS011;67856;47.754;19.088;2024-01-15T11:24:46;11.73;;;4.70;;
78563;SDS011;67856;47.754;19.088;2024-01-15T11:27:52;10.32;;;4.45;;
78563;SDS011;67856;47.754;19.088;2024-01-15T11:30:59;14.80;;;4.70;;
78563;SDS011;67856;47.754;19.088;2024-01-15T11:34:01;10.20;;;4.30;;
78563;SDS011;67856;47.754;19.088;2024-01-15T11:37:05;9.20;;;4.30;;
78563;SDS011;67856;47.754;19.088;2024-01-15T11:40:10;9.05;;;4.68;;
78563;SDS011;67856;47.754;19.088;2024-01-15T11:43:14;10.80;;;4.68;;
78563;SDS011;67856;47.754;19.088;2024-01-15T11:46:19;10.95;;;4.50;;
78563;SDS011;67856;47.754;19.088;2024-01-15T11:50:05;14.32;;;4.40;;
78563;SDS011;67856;47.754;19.088;2024-01-15T11:56:16;9.23;;;3.90;;
78563;SDS011;67856;47.754;19.088;2024-01-15T11:59:19;18.02;;;4.20;;
78563;SDS011;67856;47.754;19.088;2024-01-15T12:02:22;10.05;;;3.90;;
78563;SDS011;67856;47.754;19.088;2024-01-15T12:05:25;8.57;;;3.85;;
78563;SDS011;67856;47.754;19.088;2024-01-15T12:08:28;9.07;;;4.53;;
78563;SDS011;67856;47.754;19.088;2024-01-15T12:11:30;20.20;;;4.45;;
78563;SDS011;67856;47.754;19.088;2024-01-15T12:14:34;10.13;;;3.67;;
78563;SDS011;67856;47.754;19.088;2024-01-15T12:17:38;11.23;;;3.45;;
78563;SDS011;67856;47.754;19.088;2024-01-15T12:20:41;7.05;;;3.72;;
78563;SDS011;67856;47.754;19.088;2024-01-15T12:23:47;11.83;;;3.70;;
78563;SDS011;67856;47.754;19.088;2024-01-15T12:26:51;11.30;;;4.25;;
78563;SDS011;67856;47.754;19.088;2024-01-15T12:29:54;8.18;;;4.05;;
78563;SDS011;67856;47.754;19.088;2024-01-15T12:32:57;8.95;;;3.60;;
78563;SDS011;67856;47.754;19.088;2024-01-15T12:36:01;9.23;;;3.70;;
78563;SDS011;67856;47.754;19.088;2024-01-15T12:39:04;13.93;;;3.50;;
78563;SDS011;67856;47.754;19.088;2024-01-15T12:42:07;8.52;;;3.25;;
78563;SDS011;67856;47.754;19.088;2024-01-15T12:45:09;8.93;;;3.63;;
78563;SDS011;67856;47.754;19.088;2024-01-15T12:48:14;8.43;;;3.03;;
78563;SDS011;67856;47.754;19.088;2024-01-15T12:51:24;10.95;;;3.30;;
78563;SDS011;67856;47.754;19.088;2024-01-15T12:54:27;7.63;;;2.90;;
78563;SDS011;67856;47.754;19.088;2024-01-15T12:57:30;9.70;;;3.03;;
78563;SDS011;67856;47.754;19.088;2024-01-15T13:00:33;8.73;;;3.40;;
78563;SDS011;67856;47.754;19.088;2024-01-15T13:03:36;11.95;;;3.65;;
78563;SDS011;67856;47.754;19.088;2024-01-15T13:06:38;11.35;;;3.53;;
78563;SDS011;67856;47.754;19.088;2024-01-15T13:09:41;8.23;;;2.73;;
78563;SDS011;67856;47.754;19.088;2024-01-15T13:12:44;9.43;;;3.28;;
78563;SDS011;67856;47.754;19.088;2024-01-15T13:15:47;8.30;;;3.08;;
78563;SDS011;67856;47.754;19.088;2024-01-15T13:18:49;7.88;;;3.15;;
78563;SDS011;67856;47.754;19.088;2024-01-15T13:21:52;6.22;;;3.35;;
78563;SDS011;67856;47.754;19.088;2024-01-15T13:24:55;10.33;;;3.20;;
78563;SDS011;67856;47.754;19.088;2024-01-15T13:28:01;7.50;;;3.20;;
78563;SDS011;67856;47.754;19.088;2024-01-15T13:31:05;7.68;;;3.40;;
78563;SDS011;67856;47.754;19.088;2024-01-15T13:34:10;9.18;;;3.00;;
78563;SDS011;67856;47.754;19.088;2024-01-15T13:37:13;9.18;;;3.00;;
78563;SDS011;67856;47.754;19.088;2024-01-15T13:40:15;5.63;;;2.90;;
78563;SDS011;67856;47.754;19.088;2024-01-15T13:43:19;9.50;;;2.78;;
78563;SDS011;67856;47.754;19.088;2024-01-15T13:46:23;8.57;;;3.10;;
78563;SDS011;67856;47.754;19.088;2024-01-15T13:49:26;7.00;;;2.90;;
78563;SDS011;67856;47.754;19.088;2024-01-15T13:52:29;6.60;;;2.72;;
78563;SDS011;67856;47.754;19.088;2024-01-15T13:55:31;9.63;;;3.00;;
78563;SDS011;67856;47.754;19.088;2024-01-15T13:58:35;7.10;;;2.72;;
78563;SDS011;67856;47.754;19.088;2024-01-15T14:01:37;6.63;;;2.60;;
78563;SDS011;67856;47.754;19.088;2024-01-15T14:04:40;8.48;;;2.92;;
78563;SDS011;67856;47.754;19.088;2024-01-15T14:07:43;13.02;;;3.35;;
78563;SDS011;67856;47.754;19.088;2024-01-15T14:10:46;8.47;;;2.73;;
78563;SDS011;67856;47.754;19.088;2024-01-15T14:13:49;13.98;;;2.70;;
78563;SDS011;67856;47.754;19.088;2024-01-15T14:16:51;9.65;;;2.92;;
78563;SDS011;67856;47.754;19.088;2024-01-15T14:19:54;14.38;;;2.80;;
78563;SDS011;67856;47.754;19.088;2024-01-15T14:22:58;10.98;;;3.03;;
78563;SDS011;67856;47.754;19.088;2024-01-15T14:26:01;4.73;;;2.40;;
78563;SDS011;67856;47.754;19.088;2024-01-15T14:29:03;7.97;;;2.45;;
78563;SDS011;67856;47.754;19.088;2024-01-15T14:32:06;5.85;;;2.60;;
78563;SDS011;67856;47.754;19.088;2024-01-15T14:35:08;8.43;;;2.38;;
78563;SDS011;67856;47.754;19.088;2024-01-15T14:38:15;11.52;;;2.97;;
78563;SDS011;67856;47.754;19.088;2024-01-15T14:41:19;10.43;;;2.80;;
78563;SDS011;67856;47.754;19.088;2024-01-15T14:44:21;6.78;;;2.58;;
78563;SDS011;67856;47.754;19.088;2024-01-15T14:47:23;6.97;;;3.00;;
78563;SDS011;67856;47.754;19.088;2024-01-15T14:50:26;8.02;;;2.75;;
78563;SDS011;67856;47.754;19.088;2024-01-15T14:53:29;7.60;;;2.50;;
78563;SDS011;67856;47.754;19.088;2024-01-15T14:56:31;5.40;;;2.40;;
78563;SDS011;67856;47.754;19.088;2024-01-15T14:59:34;7.47;;;2.30;;
78563;SDS011;67856;47.754;19.088;2024-01-15T15:02:37;7.38;;;2.50;;
78563;SDS011;67856;47.754;19.088;2024-01-15T15:05:39;10.65;;;2.80;;
78563;SDS011;67856;47.754;19.088;2024-01-15T15:13:42;10.00;;;2.40;;
78563;SDS011;67856;47.754;19.088;2024-01-15T15:16:47;6.25;;;2.75;;
78563;SDS011;67856;47.754;19.088;2024-01-15T15:19:49;11.30;;;2.90;;
78563;SDS011;67856;47.754;19.088;2024-01-15T15:22:56;10.73;;;2.65;;
78563;SDS011;67856;47.754;19.088;2024-01-15T15:25:59;16.10;;;2.92;;
78563;SDS011;67856;47.754;19.088;2024-01-15T15:29:01;6.10;;;2.23;;
78563;SDS011;67856;47.754;19.088;2024-01-15T15:32:04;6.50;;;2.17;;
78563;SDS011;67856;47.754;19.088;2024-01-15T15:35:07;8.23;;;2.60;;
78563;SDS011;67856;47.754;19.088;2024-01-15T15:38:10;6.03;;;2.65;;
78563;SDS011;67856;47.754;19.088;2024-01-15T15:41:12;6.68;;;2.20;;
78563;SDS011;67856;47.754;19.088;2024-01-15T15:44:15;7.50;;;2.40;;
78563;SDS011;67856;47.754;19.088;2024-01-15T15:47:18;8.98;;;2.40;;
78563;SDS011;67856;47.754;19.088;2024-01-15T15:50:21;4.90;;;2.22;;
78563;SDS011;67856;47.754;19.088;2024-01-15T15:53:24;9.77;;;2.50;;
78563;SDS011;67856;47.754;19.088;2024-01-15T15:56:28;7.47;;;2.30;;
78563;SDS011;67856;47.754;19.088;2024-01-15T15:59:30;5.97;;;1.80;;
78563;SDS011;67856;47.754;19.088;2024-01-15T16:02:33;5.63;;;2.17;;
78563;SDS011;67856;47.754;19.088;2024-01-15T16:05:36;10.90;;;2.47;;
78563;SDS011;67856;47.754;19.088;2024-01-15T16:08:53;6.78;;;2.28;;
78563;SDS011;67856;47.754;19.088;2024-01-15T16:11:56;6.47;;;2.08;;
78563;SDS011;67856;47.754;19.088;2024-01-15T16:15:18;7.17;;;2.40;;
78563;SDS011;67856;47.754;19.088;2024-01-15T16:18:25;8.40;;;2.42;;
78563;SDS011;67856;47.754;19.088;2024-01-15T16:21:54;13.68;;;2.75;;
78563;SDS011;67856;47.754;19.088;2024-01-15T16:25:18;13.13;;;2.65;;
78563;SDS011;67856;47.754;19.088;2024-01-15T16:28:21;10.73;;;2.10;;
78563;SDS011;67856;47.754;19.088;2024-01-15T16:31:24;12.97;;;2.20;;
78563;SDS011;67856;47.754;19.088;2024-01-15T16:34:26;8.68;;;2.15;;
78563;SDS011;67856;47.754;19.088;2024-01-15T16:37:29;7.00;;;2.25;;
78563;SDS011;67856;47.754;19.088;2024-01-15T16:40:32;10.52;;;2.45;;
78563;SDS011;67856;47.754;19.088;2024-01-15T16:43:34;7.05;;;2.30;;
78563;SDS011;67856;47.754;19.088;2024-01-15T16:46:37;9.93;;;2.17;;
78563;SDS011;67856;47.754;19.088;2024-01-15T16:49:39;11.02;;;2.10;;
78563;SDS011;67856;47.754;19.088;2024-01-15T16:52:41;8.43;;;2.25;;
78563;SDS011;67856;47.754;19.088;2024-01-15T16:55:44;5.32;;;2.10;;
78563;SDS011;67856;47.754;19.088;2024-01-15T16:58:46;9.38;;;2.25;;
78563;SDS011;67856;47.754;19.088;2024-01-15T17:01:49;7.00;;;2.10;;
78563;SDS011;67856;47.754;19.088;2024-01-15T17:04:51;6.72;;;1.92;;
78563;SDS011;67856;47.754;19.088;2024-01-15T17:07:54;8.50;;;2.20;;
78563;SDS011;67856;47.754;19.088;2024-01-15T17:10:57;10.00;;;1.92;;
78563;SDS011;67856;47.754;19.088;2024-01-15T17:14:03;6.85;;;2.58;;
78563;SDS011;67856;47.754;19.088;2024-01-15T17:17:05;6.43;;;2.20;;
78563;SDS011;67856;47.754;19.088;2024-01-15T17:20:08;7.65;;;2.20;;
78563;SDS011;67856;47.754;19.088;2024-01-15T17:23:11;6.90;;;2.10;;
78563;SDS011;67856;47.754;19.088;2024-01-15T17:26:14;5.88;;;1.83;;
78563;SDS011;67856;47.754;19.088;2024-01-15T17:29:17;6.93;;;2.00;;
78563;SDS011;67856;47.754;19.088;2024-01-15T17:32:21;4.90;;;2.00;;
78563;SDS011;67856;47.754;19.088;2024-01-15T17:35:24;7.82;;;1.98;;
78563;SDS011;67856;47.754;19.088;2024-01-15T17:38:28;5.90;;;1.90;;
78563;SDS011;67856;47.754;19.088;2024-01-15T17:41:30;7.38;;;2.28;;
78563;SDS011;67856;47.754;19.088;2024-01-15T17:44:35;10.13;;;1.95;;
78563;SDS011;67856;47.754;19.088;2024-01-15T17:47:37;5.57;;;2.00;;
78563;SDS011;67856;47.754;19.088;2024-01-15T17:50:40;4.90;;;1.98;;
78563;SDS011;67856;47.754;19.088;2024-01-15T17:53:42;6.20;;;2.30;;
78563;SDS011;67856;47.754;19.088;2024-01-15T17:56:45;5.55;;;1.75;;
78563;SDS011;67856;47.754;19.088;2024-01-15T17:59:48;5.70;;;1.80;;
78563;SDS011;67856;47.754;19.088;2024-01-15T18:02:50;6.93;;;2.10;;
78563;SDS011;67856;47.754;19.088;2024-01-15T18:05:55;3.60;;;1.73;;
78563;SDS011;67856;47.754;19.088;2024-01-15T18:08:58;5.82;;;2.13;;